Time;durP1;ratioP1;P1;durP2;ratioP2;P2;SDS_P1;SDS_P2;PMS_P1;PMS_P2;Temp;Humidity;BMP_temperature;BMP_pressure;BME280_temperature;BME280_humidity;BME280_pressure;Samples;Min_cycle;Max_cycle;Signal;HPM_P1;HPM_P2
2022/09/10 03:03:01;;;;;;;7.32;3.15;;;;;;;12.70;93.26;101039.56;6210226;23;20435;-43
2022/09/10 03:05:28;;;;;;;8.32;3.15;;;;;;;12.70;93.27;101034.00;6211033;23;20016;-42
2022/09/10 03:07:56;;;;;;;10.43;2.30;;;;;;;12.69;93.45;101039.91;6210591;23;20508;-43
2022/09/10 03:10:23;;;;;;;5.93;2.58;;;;;;;12.68;93.58;101041.06;6210644;23;20044;-46
2022/09/10 03:12:50;;;;;;;4.25;2.30;;;;;;;12.68;93.44;101046.63;6210481;23;20016;-45
2022/09/10 03:15:19;;;;;;;6.57;2.25;;;;;;;12.67;93.60;101039.44;6210305;23;20027;-45
2022/09/10 03:17:46;;;;;;;6.47;1.88;;;;;;;12.66;93.77;101033.06;6210670;23;20036;-45
2022/09/10 03:20:13;;;;;;;16.40;3.33;;;;;;;12.66;93.81;101035.84;6210364;23;20025;-43
2022/09/10 03:22:40;;;;;;;9.63;2.42;;;;;;;12.64;93.74;101021.53;6210349;23;20016;-45
2022/09/10 03:25:06;;;;;;;8.20;2.20;;;;;;;12.64;93.75;101029.84;6211246;23;20047;-46
2022/09/10 03:27:33;;;;;;;7.72;1.92;;;;;;;12.63;93.58;101027.41;6210283;23;20501;-43
2022/09/10 03:30:01;;;;;;;7.68;2.10;;;;;;;12.63;93.82;101033.78;6210791;23;20024;-43
2022/09/10 03:32:30;;;;;;;9.15;2.25;;;;;;;12.63;94.03;101030.19;6209851;23;20047;-44
2022/09/10 03:34:58;;;;;;;8.38;1.90;;;;;;;12.62;93.77;101026.63;6210764;23;20056;-48
2022/09/10 03:37:25;;;;;;;11.02;2.25;;;;;;;12.60;93.89;101023.38;6210196;23;20021;-45
2022/09/10 03:39:52;;;;;;;5.00;2.20;;;;;;;12.59;93.80;101021.78;6210331;23;20324;-44
2022/09/10 03:42:19;;;;;;;6.80;2.42;;;;;;;12.56;93.82;101018.88;6210179;23;20035;-44
2022/09/10 03:44:46;;;;;;;8.05;3.30;;;;;;;12.52;93.77;101015.19;6210711;23;20025;-43
2022/09/10 03:47:13;;;;;;;8.73;2.10;;;;;;;12.49;93.96;101016.72;6210110;23;20044;-45
2022/09/10 03:49:39;;;;;;;6.30;2.05;;;;;;;12.47;93.78;101012.66;6209758;23;20366;-45
2022/09/10 03:52:06;;;;;;;7.55;2.17;;;;;;;12.46;93.79;101011.03;6210244;23;20031;-49
2022/09/10 03:54:33;;;;;;;7.22;2.30;;;;;;;12.43;93.97;101014.50;6210446;23;20127;-43
2022/09/10 03:57:01;;;;;;;6.90;2.33;;;;;;;12.43;93.79;101020.06;6210065;23;20040;-46
2022/09/10 03:59:28;;;;;;;6.30;1.90;;;;;;;12.41;93.84;101020.44;6209799;23;20021;-44
2022/09/10 04:01:56;;;;;;;8.70;2.83;;;;;;;12.41;93.87;101019.63;6209765;23;20013;-46
2022/09/10 04:04:22;;;;;;;5.95;2.35;;;;;;;12.39;93.80;101016.41;6208752;23;20399;-44
2022/09/10 04:06:51;;;;;;;7.03;3.00;;;;;;;12.35;93.91;101009.91;6210178;23;20017;-44
2022/09/10 04:09:19;;;;;;;9.00;2.30;;;;;;;12.34;93.72;101014.66;6209814;23;20024;-42
2022/09/10 04:11:46;;;;;;;10.82;2.22;;;;;;;12.33;93.78;101010.28;6209897;23;20028;-42
2022/09/10 04:14:14;;;;;;;7.75;2.88;;;;;;;12.31;93.95;101009.78;6210347;23;20028;-44
2022/09/10 04:16:41;;;;;;;6.95;2.25;;;;;;;12.29;93.78;101001.00;6210390;23;20578;-41
2022/09/10 04:19:08;;;;;;;5.68;2.20;;;;;;;12.28;94.00;101004.16;6210662;23;20046;-45
2022/09/10 04:21:35;;;;;;;12.32;2.90;;;;;;;12.25;93.78;101002.06;6210907;23;20017;-44
2022/09/10 04:24:05;;;;;;;8.98;3.20;;;;;;;12.22;93.76;101006.34;6210011;23;20047;-42
2022/09/10 04:26:31;;;;;;;7.28;3.03;;;;;;;12.23;94.07;101010.75;6210562;23;20074;-44
2022/09/10 04:28:58;;;;;;;4.63;2.20;;;;;;;12.26;94.01;101018.38;6208310;23;20407;-44
2022/09/10 04:31:26;;;;;;;8.57;3.17;;;;;;;12.26;93.65;101029.47;6210478;23;20618;-48
2022/09/10 04:33:52;;;;;;;6.70;2.90;;;;;;;12.28;93.55;101031.91;6209892;23;20451;-44
2022/09/10 04:36:22;;;;;;;8.90;2.70;;;;;;;12.27;93.55;101031.09;6210007;23;20083;-45
2022/09/10 04:38:49;;;;;;;11.40;3.50;;;;;;;12.27;93.39;101031.09;6210187;23;20020;-45
2022/09/10 04:41:17;;;;;;;8.68;2.28;;;;;;;12.26;93.58;101037.78;6210230;23;20379;-44
2022/09/10 04:43:44;;;;;;;8.18;3.03;;;;;;;12.28;93.36;101046.59;6207852;23;20636;-46
2022/09/10 04:46:10;;;;;;;12.45;4.05;;;;;;;12.26;93.17;101056.44;6210244;23;20070;-45
2022/09/10 04:48:38;;;;;;;14.30;2.83;;;;;;;12.17;93.16;101060.16;6183297;23;20024;-44
2022/09/10 04:51:05;;;;;;;6.95;3.42;;;;;;;12.13;93.32;101063.94;6210117;23;20341;-42
2022/09/10 04:53:42;;;;;;;8.38;2.72;;;;;;;12.11;93.33;101061.53;6210079;23;20028;-42
2022/09/10 04:56:09;;;;;;;10.73;2.90;;;;;;;12.08;93.51;101053.09;6209816;23;20311;-43
2022/09/10 04:58:35;;;;;;;12.75;3.80;;;;;;;12.03;93.69;101064.41;6210152;23;20071;-44
2022/09/10 05:01:05;;;;;;;10.30;3.10;;;;;;;11.97;93.65;101065.81;6209772;23;20021;-44
2022/09/10 05:03:32;;;;;;;11.65;3.28;;;;;;;11.94;93.79;101066.53;6209385;23;20419;-43
2022/09/10 05:06:02;;;;;;;5.68;3.30;;;;;;;11.92;93.93;101063.25;6209998;23;20027;-49
2022/09/10 05:08:29;;;;;;;7.75;2.88;;;;;;;11.88;94.01;101062.34;6209957;23;20017;-44
2022/09/10 05:10:59;;;;;;;9.82;3.47;;;;;;;11.85;94.01;101068.59;6209530;23;20058;-45
2022/09/10 05:13:26;;;;;;;4.28;3.00;;;;;;;11.82;94.41;101063.72;6209936;23;20028;-44
2022/09/10 05:15:57;;;;;;;7.75;3.63;;;;;;;11.80;94.20;101071.59;6209545;23;20028;-44
2022/09/10 05:18:27;;;;;;;11.18;4.57;;;;;;;11.83;94.20;101068.13;6207968;23;20024;-45
2022/09/10 05:20:53;;;;;;;7.35;3.75;;;;;;;11.84;94.27;101083.59;6209627;23;20079;-44
2022/09/10 05:23:20;;;;;;;4.20;3.58;;;;;;;11.87;93.97;101082.91;6209367;23;20020;-44
2022/09/10 05:25:47;;;;;;;17.83;4.50;;;;;;;11.89;93.89;101086.97;6209865;23;20016;-44
2022/09/10 05:28:15;;;;;;;7.32;3.85;;;;;;;11.90;93.69;101096.09;6211652;23;20104;-46
2022/09/10 05:30:43;;;;;;;8.20;3.50;;;;;;;11.87;93.49;101094.00;6211629;23;20016;-43
2022/09/10 05:33:16;;;;;;;7.57;3.42;;;;;;;11.81;93.38;101098.97;6211477;23;20051;-44
2022/09/10 05:35:43;;;;;;;6.38;3.50;;;;;;;11.76;93.52;101090.88;6211664;23;20162;-43
2022/09/10 05:38:12;;;;;;;6.78;3.60;;;;;;;11.69;93.78;101093.41;6211764;23;20155;-43
2022/09/10 05:40:41;;;;;;;12.60;4.00;;;;;;;11.63;93.96;101091.97;6211387;23;20447;-45
2022/09/10 05:43:10;;;;;;;9.38;3.72;;;;;;;11.66;94.08;101093.25;6211568;23;20017;-46
2022/09/10 05:45:37;;;;;;;8.40;4.28;;;;;;;11.67;94.02;101094.88;6211576;23;20028;-46
2022/09/10 05:48:04;;;;;;;8.48;3.97;;;;;;;11.66;93.91;101093.25;6211384;23;20455;-46
2022/09/10 05:50:31;;;;;;;10.20;4.55;;;;;;;11.63;94.03;101094.75;6210992;23;20020;-44
2022/09/10 05:52:57;;;;;;;6.47;3.50;;;;;;;11.60;94.11;101096.25;6211424;23;20024;-44
2022/09/10 05:55:24;;;;;;;14.30;5.22;;;;;;;11.61;94.22;101102.63;6211157;23;20387;-46
2022/09/10 05:57:51;;;;;;;8.90;4.30;;;;;;;11.59;94.36;101096.59;6211354;23;20143;-42
2022/09/10 06:00:20;;;;;;;6.30;3.28;;;;;;;11.60;94.12;101099.03;6210914;23;20090;-43
2022/09/10 06:02:47;;;;;;;8.38;3.80;;;;;;;11.57;94.34;101099.72;6210895;23;20028;-44
2022/09/10 06:05:14;;;;;;;8.93;3.90;;;;;;;11.57;94.48;101101.66;6210918;23;20024;-44
2022/09/10 06:07:40;;;;;;;8.88;2.97;;;;;;;11.57;94.42;101113.56;6211563;23;20020;-44
2022/09/10 06:10:07;;;;;;;6.47;3.10;;;;;;;11.61;94.48;101120.06;6211047;23;20016;-42
2022/09/10 06:12:37;;;;;;;5.80;2.70;;;;;;;11.64;94.25;101121.34;6211261;23;20025;-42
2022/09/10 06:15:06;;;;;;;6.47;3.15;;;;;;;11.68;94.36;101119.50;6211164;23;20025;-44
2022/09/10 06:17:33;;;;;;;6.68;2.63;;;;;;;11.71;94.19;101123.56;6211145;23;20025;-43
2022/09/10 06:20:00;;;;;;;8.13;2.85;;;;;;;11.70;94.30;101119.19;6211222;23;20047;-43
2022/09/10 06:22:26;;;;;;;15.45;4.72;;;;;;;11.70;94.19;101108.91;6210672;23;20017;-46
2022/09/10 06:24:54;;;;;;;10.90;3.33;;;;;;;11.70;94.41;101122.78;6209934;23;20043;-44
2022/09/10 06:27:22;;;;;;;7.90;3.05;;;;;;;11.70;94.23;101121.97;6209465;23;20100;-44
2022/09/10 06:29:48;;;;;;;7.85;2.78;;;;;;;11.73;94.35;101130.38;6210647;23;20027;-43
2022/09/10 06:32:15;;;;;;;6.03;2.85;;;;;;;11.74;94.63;101139.53;6209283;23;20017;-43
2022/09/10 06:34:42;;;;;;;13.75;4.55;;;;;;;11.79;94.79;101139.31;6210991;23;20016;-45
2022/09/10 06:37:08;;;;;;;9.00;3.47;;;;;;;11.84;94.58;101139.09;6210848;23;20067;-42
2022/09/10 06:39:35;;;;;;;8.25;3.35;;;;;;;11.89;94.49;101138.84;6210806;23;20017;-46
2022/09/10 06:42:02;;;;;;;7.70;2.70;;;;;;;11.89;94.58;101145.22;6210828;23;20021;-45
2022/09/10 06:44:28;;;;;;;8.75;3.25;;;;;;;11.90;94.66;101143.25;6211185;23;20024;-49
2022/09/10 06:46:55;;;;;;;6.47;3.67;;;;;;;11.94;94.83;101138.66;6210568;23;20451;-44
2022/09/10 06:49:42;;;;;;;10.82;2.72;;;;;;;11.97;94.87;101135.16;6210571;23;20016;-47
2022/09/10 06:52:10;;;;;;;4.57;2.80;;;;;;;12.01;94.93;101134.16;6210925;23;20020;-44
2022/09/10 06:54:36;;;;;;;6.15;2.80;;;;;;;12.07;94.97;101140.28;6211104;23;20442;-43
2022/09/10 06:57:03;;;;;;;9.63;3.63;;;;;;;12.11;95.04;101138.44;6209025;23;20050;-43
2022/09/10 06:59:30;;;;;;;8.55;3.05;;;;;;;12.15;95.10;101139.38;6210248;23;20020;-44
2022/09/10 07:02:01;;;;;;;5.55;3.10;;;;;;;12.18;95.02;101149.75;6210856;23;20032;-46
2022/09/10 07:04:29;;;;;;;9.02;3.53;;;;;;;12.19;95.14;101154.97;6210593;23;20055;-42
2022/09/10 07:07:25;;;;;;;8.85;3.50;;;;;;;12.23;95.07;101155.09;6210634;23;20017;-43
2022/09/10 07:11:03;;;;;;;6.78;3.60;;;;;;;12.31;95.24;101154.16;6182645;23;20024;-44
2022/09/10 07:14:21;;;;;;;11.90;4.22;;;;;;;12.37;94.99;101160.28;6187422;23;20074;-43
2022/09/10 07:17:35;;;;;;;6.35;4.03;;;;;;;12.42;95.21;101171.16;6183329;23;20020;-46
2022/09/10 07:21:11;;;;;;;13.95;4.97;;;;;;;12.46;95.34;101170.16;6209679;23;20055;-44
2022/09/10 07:25:12;;;;;;;13.20;4.68;;;;;;;12.53;95.26;101173.16;6211366;23;20032;-44
2022/09/10 07:28:30;;;;;;;7.05;4.53;;;;;;;12.60;95.23;101172.56;6210427;23;20016;-42
2022/09/10 07:32:07;;;;;;;9.18;4.13;;;;;;;12.67;95.06;101178.34;6207922;23;20031;-43
2022/09/10 07:35:31;;;;;;;8.52;3.88;;;;;;;12.73;95.42;101177.75;6183177;23;20375;-43
2022/09/10 07:39:03;;;;;;;8.73;3.35;;;;;;;12.83;95.45;101199.53;6203978;23;20099;-43
2022/09/10 07:42:02;;;;;;;6.75;4.43;;;;;;;12.90;95.58;101189.75;6188132;23;20021;-43
2022/09/10 07:44:45;;;;;;;10.90;4.07;;;;;;;12.96;95.87;101193.94;6211102;23;20025;-43
2022/09/10 07:47:29;;;;;;;15.00;3.85;;;;;;;13.02;95.73;101187.78;6208292;23;20020;-43
2022/09/10 07:50:45;;;;;;;15.55;3.67;;;;;;;13.09;95.96;101184.44;6199891;23;20025;-44
2022/09/10 07:54:16;;;;;;;6.55;3.75;;;;;;;13.15;96.05;101183.03;6201969;23;20051;-42
2022/09/10 08:08:18;;;;;;;6.60;3.13;;;;;;;13.67;95.96;101189.31;6210014;23;20164;-42
2022/09/10 08:12:02;;;;;;;9.15;3.25;;;;;;;13.85;96.09;101189.78;6206414;23;20086;-42
2022/09/10 08:19:01;;;;;;;10.43;3.58;;;;;;;14.20;96.03;101203.84;6207477;23;20059;-41
2022/09/10 08:22:59;;;;;;;5.53;2.00;;;;;;;14.30;96.39;101189.38;6209965;23;20040;-50
2022/09/10 08:26:03;;;;;;;10.52;3.65;;;;;;;14.47;96.85;101181.53;6210983;23;20420;-42
2022/09/10 08:29:04;;;;;;;14.30;2.80;;;;;;;14.65;97.63;101184.72;6210389;23;20028;-41
2022/09/10 08:31:51;;;;;;;11.45;2.67;;;;;;;14.79;97.77;101193.44;6184699;23;20059;-42
2022/09/10 08:34:25;;;;;;;6.72;2.13;;;;;;;14.87;98.63;101192.44;6210854;23;20032;-42
2022/09/10 08:37:29;;;;;;;7.90;1.90;;;;;;;15.03;100.00;101193.19;6179124;23;20052;-40
2022/09/10 08:40:28;;;;;;;6.78;2.47;;;;;;;15.22;100.00;101196.00;6184094;23;20119;-42
2022/09/10 08:43:43;;;;;;;11.95;2.33;;;;;;;15.39;100.00;101191.97;6210687;23;20025;-44
2022/09/10 08:46:55;;;;;;;6.57;1.88;;;;;;;15.62;100.00;101197.66;6202616;23;20086;-42
2022/09/10 08:49:50;;;;;;;7.80;1.77;;;;;;;16.05;100.00;101211.25;6184080;23;20401;-40
2022/09/10 08:52:55;;;;;;;8.32;1.70;;;;;;;16.52;100.00;101216.47;6210175;23;20025;-40
2022/09/10 08:55:34;;;;;;;8.85;2.00;;;;;;;17.02;100.00;101212.53;6209941;23;20107;-40
2022/09/10 08:58:17;;;;;;;6.43;1.75;;;;;;;17.25;100.00;101215.22;6209904;23;20371;-41
2022/09/10 09:01:14;;;;;;;9.23;1.83;;;;;;;17.08;99.66;101221.41;6210327;23;20355;-42
2022/09/10 09:04:16;;;;;;;6.20;1.50;;;;;;;17.77;97.39;101228.31;6210041;23;20075;-40
2022/09/10 09:07:11;;;;;;;5.43;1.70;;;;;;;17.97;93.23;101232.56;6208404;23;20116;-40
2022/09/10 09:09:51;;;;;;;7.30;1.40;;;;;;;19.10;88.96;101230.78;6210002;23;20024;-44
2022/09/10 09:12:45;;;;;;;6.47;1.20;;;;;;;19.54;83.93;101239.09;6208016;23;20079;-41
2022/09/10 09:16:08;;;;;;;5.97;1.70;;;;;;;18.74;84.03;101244.53;6209689;23;20103;-42
2022/09/10 09:19:13;;;;;;;6.10;1.25;;;;;;;18.45;83.13;101239.88;6191539;23;20028;-36
2022/09/10 09:22:26;;;;;;;19.45;3.13;;;;;;;18.07;82.21;101235.47;6205244;23;20119;-36
2022/09/10 09:26:15;;;;;;;6.70;1.42;;;;;;;17.57;81.74;101238.88;6165015;23;20031;-35
2022/09/10 09:29:16;;;;;;;2.90;1.70;;;;;;;17.11;81.36;101237.41;6184474;23;20024;-35
2022/09/10 09:32:09;;;;;;;8.35;1.48;;;;;;;16.87;80.78;101235.84;6210420;23;20021;-35
2022/09/10 09:35:01;;;;;;;7.97;2.10;;;;;;;16.64;80.72;101238.69;6208650;23;20021;-35
2022/09/10 09:37:58;;;;;;;5.70;1.88;;;;;;;16.49;80.93;101242.41;6208420;23;20293;-43
2022/09/10 09:40:45;;;;;;;4.00;1.60;;;;;;;16.41;80.63;101238.66;6210645;23;20055;-43
2022/09/10 09:43:32;;;;;;;2.90;1.55;;;;;;;16.43;81.05;101241.91;6210082;23;20410;-42
2022/09/10 09:46:23;;;;;;;8.60;1.63;;;;;;;16.80;80.25;101233.75;6210179;23;20493;-42
2022/09/10 09:49:22;;;;;;;4.53;1.25;;;;;;;16.94;79.10;101238.78;6208073;23;20028;-47
2022/09/10 09:52:51;;;;;;;4.53;1.20;;;;;;;16.85;79.32;101241.00;6209389;23;20017;-43
2022/09/10 09:59:42;;;;;;;5.10;1.33;;;;;;;17.62;78.33;101246.94;6202861;23;20075;-44
2022/09/10 10:02:29;;;;;;;9.40;1.33;;;;;;;17.65;77.61;101243.41;6209650;23;20020;-41
2022/09/10 10:05:50;;;;;;;5.45;2.25;;;;;;;17.63;78.52;101242.97;6207129;23;20032;-46
2022/09/10 10:09:02;;;;;;;2.13;0.80;;;;;;;18.61;76.75;101243.22;6183518;23;20081;-41
2022/09/10 10:12:35;;;;;;;5.05;1.00;;;;;;;19.23;75.22;101246.91;6186891;23;20020;-46
2022/09/10 10:16:14;;;;;;;3.63;1.23;;;;;;;19.70;74.01;101256.38;6210442;23;20021;-43
2022/09/10 10:19:27;;;;;;;1.70;0.73;;;;;;;20.36;72.13;101250.19;6211362;23;20324;-40
2022/09/10 10:26:38;;;;;;;2.95;0.80;;;;;;;19.43;72.35;101244.66;6211274;23;20410;-44
2022/09/10 10:30:07;;;;;;;2.10;0.80;;;;;;;19.74;71.87;101243.97;6211734;23;20032;-41
2022/09/10 10:33:10;;;;;;;3.25;0.88;;;;;;;21.16;67.40;101251.44;6209434;23;20036;-42
2022/09/10 10:37:27;;;;;;;4.20;0.90;;;;;;;20.62;66.80;101243.41;5113912;28;20531;-41
2022/09/10 10:40:42;;;;;;;2.30;0.70;;;;;;;19.81;67.87;101246.81;5096461;28;20066;-42
2022/09/10 10:44:22;;;;;;;4.47;2.03;;;;;;;19.47;69.28;101242.66;5100691;28;20118;-42
2022/09/10 10:48:29;;;;;;;2.33;1.13;;;;;;;20.32;66.73;101235.34;5100955;28;20119;-40
2022/09/10 10:52:04;;;;;;;6.10;0.95;;;;;;;21.21;65.23;101239.75;5096534;28;20051;-46
2022/09/10 10:55:22;;;;;;;4.43;1.05;;;;;;;21.66;63.81;101235.19;5096007;28;20241;-44
2022/09/10 11:02:44;;;;;;;2.95;0.90;;;;;;;21.55;65.15;101233.63;5101062;28;20058;-41
2022/09/10 11:06:07;;;;;;;4.25;1.30;;;;;;;21.10;65.20;101229.72;5096618;28;20124;-42
2022/09/10 11:09:15;;;;;;;4.05;1.40;;;;;;;20.87;65.70;101224.50;5100681;28;20042;-41
2022/09/10 11:12:48;;;;;;;7.43;1.33;;;;;;;20.68;65.78;101222.09;5100850;28;20554;-45
2022/09/10 11:16:27;;;;;;;4.20;1.42;;;;;;;20.51;65.80;101220.09;5049640;28;20455;-49
2022/09/10 11:19:30;;;;;;;3.90;1.38;;;;;;;20.34;66.51;101220.88;5095152;28;20093;-39
2022/09/10 11:23:07;;;;;;;3.17;0.98;;;;;;;20.21;66.98;101216.78;5079446;28;20044;-45
2022/09/10 11:27:19;;;;;;;5.97;0.90;;;;;;;20.02;67.48;101218.78;5096492;28;20050;-43
2022/09/10 11:30:51;;;;;;;6.75;1.25;;;;;;;19.79;67.56;101223.13;5055763;28;20573;-43
2022/09/10 11:34:57;;;;;;;6.38;1.63;;;;;;;19.52;68.24;101219.81;5097618;28;20056;-43
2022/09/10 11:38:35;;;;;;;3.47;0.90;;;;;;;19.46;68.20;101218.56;5094425;28;20051;-44
2022/09/10 11:41:58;;;;;;;3.83;0.73;;;;;;;19.55;68.57;101213.41;5091638;28;20043;-43
2022/09/10 11:45:03;;;;;;;5.30;1.20;;;;;;;19.71;68.06;101216.69;5096655;28;20063;-50
2022/09/10 11:48:50;;;;;;;5.70;0.77;;;;;;;19.76;68.07;101216.28;5083213;28;20138;-43
2022/09/10 11:52:10;;;;;;;2.65;0.70;;;;;;;19.73;68.10;101214.28;5054025;28;20063;-40
2022/09/10 11:55:31;;;;;;;;;;;;;;;19.73;68.18;101207.84;5084202;28;20067;-42
2022/09/10 11:58:44;;;;;;;5.57;0.90;;;;;;;19.96;69.00;101211.16;5082467;28;20436;-42
2022/09/10 12:02:01;;;;;;;;;;;;;;;20.05;68.57;101211.56;5084251;28;20071;-46
2022/09/10 12:05:26;;;;;;;2.10;0.80;;;;;;;20.12;68.16;101219.22;5085621;28;19964;-51
2022/09/10 12:08:31;;;;;;;3.35;1.05;;;;;;;20.25;68.24;101214.84;5083295;28;20097;-44
2022/09/10 12:12:02;;;;;;;3.38;0.82;;;;;;;20.39;67.58;101218.47;5086070;28;20051;-47
2022/09/10 12:15:32;;;;;;;4.38;0.88;;;;;;;20.26;67.20;101213.63;5074030;28;20048;-45
2022/09/10 12:22:52;;;;;;;2.53;1.00;;;;;;;20.31;67.05;101222.47;5084724;28;20114;-46
2022/09/10 12:26:34;;;;;;;1.67;0.68;;;;;;;20.32;66.61;101212.84;5088468;28;20040;-46
2022/09/10 12:29:46;;;;;;;3.95;0.95;;;;;;;20.40;66.59;101210.84;5079387;28;20040;-44
2022/09/10 12:33:30;;;;;;;5.00;1.35;;;;;;;20.42;66.25;101211.22;5084125;28;20051;-44
2022/09/10 12:36:33;;;;;;;4.53;0.90;;;;;;;20.36;66.03;101212.84;5084670;28;20032;-45
2022/09/10 12:40:12;;;;;;;4.95;0.73;;;;;;;20.48;65.55;101218.88;5068470;28;20137;-51
2022/09/10 12:44:03;;;;;;;3.80;1.20;;;;;;;20.81;65.51;101220.47;5077405;28;20047;-46
2022/09/10 12:47:51;;;;;;;2.17;1.08;;;;;;;21.07;64.77;101220.09;5060756;28;20059;-48
2022/09/10 12:51:29;;;;;;;4.13;0.80;;;;;;;21.32;64.67;101224.81;5059090;28;20094;-45
2022/09/10 12:58:53;;;;;;;3.78;1.50;;;;;;;21.28;63.09;101226.88;5051734;28;20595;-47
2022/09/10 13:02:52;;;;;;;4.63;1.08;;;;;;;20.95;63.67;101234.53;5060754;28;20098;-45
2022/09/10 13:06:24;;;;;;;4.72;1.17;;;;;;;20.87;64.46;101229.31;4958721;28;20711;-48
2022/09/10 13:13:57;;;;;;;5.22;1.13;;;;;;;20.85;63.65;101221.28;5063078;28;20040;-44
2022/09/10 13:16:41;;;;;;;5.22;1.23;;;;;;;20.86;63.22;101219.28;5064291;28;20063;-48
2022/09/10 13:20:21;;;;;;;1.05;0.77;;;;;;;20.98;63.75;101224.47;5059748;28;20119;-46
2022/09/10 13:27:01;;;;;;;3.22;1.08;;;;;;;21.36;63.08;101222.81;5049442;28;20036;-48
2022/09/10 13:29:42;;;;;;;5.03;0.70;;;;;;;21.53;63.35;101230.41;5060081;28;20048;-47
2022/09/10 13:32:19;;;;;;;4.43;0.80;;;;;;;21.70;63.36;101226.72;5043915;28;20047;-47
2022/09/10 13:35:03;;;;;;;2.95;1.00;;;;;;;22.00;63.10;101212.88;5056854;28;20056;-47
2022/09/10 13:38:02;;;;;;;6.30;1.00;;;;;;;22.07;62.29;101217.69;5045409;28;20076;-45
2022/09/10 13:40:51;;;;;;;3.03;0.95;;;;;;;22.04;62.21;101219.31;5044030;28;20106;-45
2022/09/10 13:43:38;;;;;;;4.93;0.75;;;;;;;22.16;62.07;101224.47;5059106;28;20055;-48
2022/09/10 13:46:11;;;;;;;4.30;1.00;;;;;;;22.23;61.76;101204.69;5060596;28;20041;-43
2022/09/10 13:48:45;;;;;;;4.45;0.95;;;;;;;22.25;61.09;101207.09;5064888;28;20083;-46
2022/09/10 13:51:29;;;;;;;2.58;0.82;;;;;;;22.29;61.33;101217.13;5052830;28;20041;-44
2022/09/10 13:54:06;;;;;;;6.30;1.88;;;;;;;22.31;61.32;101211.91;5062132;28;20414;-48
2022/09/10 13:56:33;;;;;;;3.55;0.93;;;;;;;22.37;60.90;101206.63;5059250;28;20048;-50
2022/09/10 13:59:02;;;;;;;11.30;3.15;;;;;;;22.24;60.37;101202.69;5038738;28;20075;-45
2022/09/10 14:01:52;;;;;;;3.38;1.63;;;;;;;22.13;59.54;101202.75;5060424;28;20055;-43
2022/09/10 14:04:25;;;;;;;4.72;0.93;;;;;;;22.13;59.94;101202.75;5059572;28;20150;-44
2022/09/10 14:07:06;;;;;;;4.35;1.13;;;;;;;22.15;60.61;101200.31;5059549;28;20486;-45
2022/09/10 14:09:33;;;;;;;5.65;1.23;;;;;;;22.07;60.14;101201.56;5064667;28;20040;-44
2022/09/10 14:12:05;;;;;;;3.70;1.80;;;;;;;22.04;59.75;101202.41;5058746;28;20513;-45
2022/09/10 14:14:39;;;;;;;3.00;0.90;;;;;;;22.05;59.35;101195.56;5061360;28;20510;-40
2022/09/10 14:17:14;;;;;;;3.40;0.85;;;;;;;22.03;59.81;101200.78;5063175;28;20054;-43
2022/09/10 14:19:48;;;;;;;7.32;1.45;;;;;;;22.10;60.11;101205.59;5048584;28;20044;-41
2022/09/10 14:22:25;;;;;;;5.50;1.38;;;;;;;22.08;59.38;101205.22;5061203;28;20040;-43
2022/09/10 14:25:00;;;;;;;5.88;1.42;;;;;;;22.09;59.53;101195.50;5044999;28;20512;-42
2022/09/10 14:27:30;;;;;;;5.20;0.80;;;;;;;22.03;58.85;101200.78;5066084;28;20051;-43
2022/09/10 14:30:17;;;;;;;4.75;1.73;;;;;;;21.97;59.43;101194.00;5054785;28;20154;-49
2022/09/10 14:32:45;;;;;;;3.30;1.40;;;;;;;21.97;59.58;101194.00;5042218;28;20473;-43
2022/09/10 14:35:38;;;;;;;4.80;1.50;;;;;;;22.03;58.25;101203.59;5058692;28;20055;-42
2022/09/10 14:38:27;;;;;;;3.65;1.20;;;;;;;22.10;58.33;101203.56;5036150;28;20048;-42
2022/09/10 14:41:00;;;;;;;2.67;1.10;;;;;;;22.17;58.82;101206.34;5059926;28;20051;-43
2022/09/10 14:43:36;;;;;;;3.75;1.00;;;;;;;22.18;58.18;101205.13;5062796;28;20484;-42
2022/09/10 14:46:08;;;;;;;3.60;1.10;;;;;;;22.16;58.73;101212.41;5034607;28;20059;-41
2022/09/10 14:49:01;;;;;;;4.22;0.88;;;;;;;22.12;58.21;101206.78;5053110;28;20040;-42
2022/09/10 14:51:28;;;;;;;2.17;0.80;;;;;;;22.18;58.68;101210.78;5060859;28;20041;-41
2022/09/10 14:53:57;;;;;;;4.22;1.25;;;;;;;22.13;57.58;101197.13;5061822;28;20494;-41
2022/09/10 14:56:41;;;;;;;5.07;2.00;;;;;;;22.15;57.74;101207.97;5064230;28;20482;-45
2022/09/10 14:59:22;;;;;;;3.38;1.00;;;;;;;22.22;57.33;101208.72;5062105;28;20040;-42
2022/09/10 15:01:50;;;;;;;;;;;;;;;22.13;57.26;101194.28;5059089;28;20512;-46
2022/09/10 15:04:22;;;;;;;2.42;0.98;;;;;;;22.11;58.18;101196.69;5062673;28;19931;-42
2022/09/10 15:06:53;;;;;;;4.10;1.50;;;;;;;22.19;58.33;101194.63;5045031;28;20048;-47
2022/09/10 15:09:20;;;;;;;7.22;2.47;;;;;;;22.20;57.56;101199.88;5064184;28;20045;-43
2022/09/10 15:11:47;;;;;;;3.47;1.20;;;;;;;22.22;57.09;101191.00;5063249;28;20040;-43
2022/09/10 15:14:15;;;;;;;7.13;1.20;;;;;;;22.19;57.89;101195.44;5046625;28;20051;-44
2022/09/10 15:16:42;;;;;;;2.25;1.02;;;;;;;22.29;57.77;101194.56;5064526;28;20052;-43
2022/09/10 15:19:10;;;;;;;5.82;1.00;;;;;;;22.32;56.85;101199.38;5059864;28;20068;-43
2022/09/10 15:21:38;;;;;;;3.08;0.82;;;;;;;22.29;56.95;101196.59;5063463;28;20032;-43
2022/09/10 15:24:11;;;;;;;3.13;0.82;;;;;;;22.22;57.15;101196.63;5068281;28;20063;-46
2022/09/10 15:26:38;;;;;;;4.55;1.52;;;;;;;22.14;57.15;101193.06;5068383;28;20075;-42
2022/09/10 15:29:04;;;;;;;3.40;0.95;;;;;;;22.18;57.53;101199.50;5068751;28;20052;-48
2022/09/10 15:31:31;;;;;;;4.95;1.20;;;;;;;22.18;57.60;101204.34;5067389;28;20437;-42
2022/09/10 15:33:58;;;;;;;4.43;0.98;;;;;;;22.18;57.56;101202.31;5066553;28;20115;-42
2022/09/10 15:36:27;;;;;;;7.85;1.52;;;;;;;22.20;57.58;101207.53;5063590;28;20052;-43
2022/09/10 15:38:54;;;;;;;4.22;1.60;;;;;;;22.28;57.20;101212.72;5060792;28;20055;-44
2022/09/10 15:41:21;;;;;;;1.42;0.95;;;;;;;22.39;57.62;101193.69;5062498;28;20044;-44
2022/09/10 15:43:47;;;;;;;4.20;0.88;;;;;;;22.50;57.04;101198.44;5068634;28;20044;-43
2022/09/10 15:46:15;;;;;;;8.68;1.83;;;;;;;22.50;57.06;101192.81;5068214;28;20090;-43
2022/09/10 15:48:43;;;;;;;2.97;0.90;;;;;;;22.43;57.04;101196.47;5065398;28;20040;-45
2022/09/10 15:51:20;;;;;;;2.95;0.80;;;;;;;22.34;56.47;101187.69;5067196;28;20047;-43
2022/09/10 15:53:48;;;;;;;3.53;0.73;;;;;;;22.20;56.86;101184.97;5062009;28;20556;-46
2022/09/10 15:56:16;;;;;;;2.70;1.05;;;;;;;22.15;56.77;101193.88;5067772;28;20490;-44
2022/09/10 15:58:54;;;;;;;3.55;1.05;;;;;;;22.29;57.11;101188.13;5067846;28;20047;-42
2022/09/10 16:01:21;;;;;;;3.95;1.45;;;;;;;22.38;56.86;101180.00;5064785;28;20067;-43
2022/09/10 16:03:55;;;;;;;4.72;1.05;;;;;;;22.48;57.11;101178.31;5067998;28;20052;-43
2022/09/10 16:06:23;;;;;;;3.05;1.45;;;;;;;22.55;56.73;101179.06;5050319;28;20067;-43
2022/09/10 16:08:55;;;;;;;3.55;1.30;;;;;;;22.43;56.39;101185.19;5068611;28;20080;-43
2022/09/10 16:11:23;;;;;;;4.90;1.20;;;;;;;22.16;56.54;101190.63;5039832;28;20049;-46
2022/09/10 16:13:51;;;;;;;3.75;0.98;;;;;;;22.07;57.54;101193.13;5056454;28;20033;-46
2022/09/10 16:16:20;;;;;;;4.53;1.20;;;;;;;22.18;57.18;101185.41;5061536;28;20049;-47
2022/09/10 16:18:50;;;;;;;4.82;1.02;;;;;;;22.21;57.70;101190.19;5062843;28;20056;-45
2022/09/10 16:21:23;;;;;;;5.50;1.10;;;;;;;22.24;56.85;101186.53;5062443;28;20048;-41
2022/09/10 16:23:51;;;;;;;3.63;1.05;;;;;;;22.23;56.39;101184.16;5063135;28;20142;-42
2022/09/10 16:26:21;;;;;;;2.95;0.65;;;;;;;22.16;57.02;101189.84;5062865;28;20048;-42
2022/09/10 16:28:57;;;;;;;6.28;1.48;;;;;;;22.15;57.04;101191.84;5056282;28;20101;-41
2022/09/10 16:31:29;;;;;;;2.50;1.40;;;;;;;22.07;56.32;101189.50;5064896;28;20044;-41
2022/09/10 16:33:58;;;;;;;2.25;0.75;;;;;;;22.02;56.21;101187.91;5049227;28;20584;-43
2022/09/10 16:36:25;;;;;;;6.93;1.20;;;;;;;22.00;56.43;101193.16;5048983;28;20048;-43
2022/09/10 16:38:54;;;;;;;5.80;1.02;;;;;;;22.00;56.45;101192.38;5067309;28;20067;-45
2022/09/10 16:41:23;;;;;;;5.90;2.40;;;;;;;22.04;56.65;101193.13;5065853;28;20080;-41
2022/09/10 16:43:50;;;;;;;3.05;1.10;;;;;;;21.99;57.39;101194.38;5058666;28;20040;-43